createdAt,value
2023-04-15T00:00:00.257Z,99128.63
2023-04-15T00:02:30.854Z,99129.98
2023-04-15T00:05:04.159Z,99133.42
2023-04-15T00:07:48.143Z,99137.65
2023-04-15T00:10:32.991Z,99134.63
2023-04-15T00:13:04.953Z,99133.44
2023-04-15T00:15:33.011Z,99131.85
2023-04-15T00:18:33.897Z,99132.14
2023-04-15T00:21:12.153Z,99130.68
2023-04-15T00:23:42.864Z,99134.27
2023-04-15T00:26:13.937Z,99134.37
2023-04-15T00:28:44.930Z,99137.38
2023-04-15T00:31:17.878Z,99140.55
2023-04-15T00:33:47.523Z,99140.58
2023-04-15T00:36:19.912Z,99139.02
2023-04-15T00:38:54.216Z,99140.05
2023-04-15T00:41:30.860Z,99138.79
2023-04-15T00:44:05.139Z,99141.48
2023-04-15T00:46:37.877Z,99148.09
2023-04-15T00:49:15.009Z,99149.98
2023-04-15T00:51:48.300Z,99147.23
2023-04-15T00:54:20.416Z,99146.52
2023-04-15T00:56:53.713Z,99152.31
2023-04-15T00:59:24.890Z,99143.17
2023-04-15T01:01:53.703Z,99142.05
2023-04-15T01:04:26.315Z,99143.05
2023-04-15T01:06:54.473Z,99138.20
2023-04-15T01:09:22.541Z,99135.14
2023-04-15T01:11:55.226Z,99137.02
2023-04-15T01:14:24.057Z,99137.28
2023-04-15T01:16:57.291Z,99133.23
2023-04-15T01:19:26.911Z,99139.45
2023-04-15T01:21:58.486Z,99134.63
2023-04-15T01:24:28.930Z,99135.03
2023-04-15T01:26:58.604Z,99139.31
2023-04-15T01:29:29.342Z,99140.75
2023-04-15T01:31:59.129Z,99141.26
2023-04-15T01:34:32.145Z,99139.98
2023-04-15T01:37:04.006Z,99143.90
2023-04-15T01:39:32.268Z,99147.38
2023-04-15T01:42:06.629Z,99152.33
2023-04-15T01:44:37.438Z,99154.32
2023-04-15T01:47:05.802Z,99155.05
2023-04-15T01:49:43.083Z,99154.15
2023-04-15T01:52:14.463Z,99160.00
2023-04-15T01:54:46.639Z,99158.44
2023-04-15T01:57:14.790Z,99157.48
2023-04-15T01:59:42.912Z,99160.00
2023-04-15T02:02:30.281Z,99159.94
2023-04-15T02:04:59.545Z,99153.81
2023-04-15T02:07:33.952Z,99150.67
2023-04-15T02:10:04.937Z,99154.05
2023-04-15T02:12:35.759Z,99157.98
2023-04-15T02:15:05.584Z,99154.67
2023-04-15T02:17:38.088Z,99146.14
2023-04-15T02:20:21.435Z,99145.32
2023-04-15T02:22:52.227Z,99143.05
2023-04-15T02:25:20.701Z,99138.21
2023-04-15T02:27:53.501Z,99141.18
2023-04-15T02:30:24.137Z,99140.74
2023-04-15T02:32:54.180Z,99145.67
2023-04-15T02:35:29.006Z,99141.26
2023-04-15T02:38:08.356Z,99139.95
2023-04-15T02:40:42.420Z,99141.24
2023-04-15T02:43:10.811Z,99143.02
2023-04-15T02:45:43.635Z,99143.09
2023-04-15T02:48:18.163Z,99144.45
2023-04-15T02:50:48.234Z,99146.63
2023-04-15T02:53:19.409Z,99149.12
2023-04-15T02:55:47.529Z,99147.31
2023-04-15T02:58:16.019Z,99143.40
2023-04-15T03:00:44.091Z,99141.29
2023-04-15T03:03:15.491Z,99140.28
2023-04-15T03:05:46.884Z,99141.33
2023-04-15T03:08:23.348Z,99144.02
2023-04-15T03:10:52.687Z,99142.14
2023-04-15T03:13:21.872Z,99142.14
2023-04-15T03:15:50.005Z,99142.84
2023-04-15T03:18:18.209Z,99148.55
2023-04-15T03:20:46.866Z,99148.45
2023-04-15T03:23:15.568Z,99148.52
2023-04-15T03:25:45.304Z,99148.52
2023-04-15T03:28:13.482Z,99153.39
2023-04-15T03:30:41.977Z,99160.20
2023-04-15T03:33:11.107Z,99162.91
2023-04-15T03:35:39.418Z,99162.48
2023-04-15T03:38:07.537Z,99166.05
2023-04-15T03:40:35.639Z,99162.23
2023-04-15T03:43:03.577Z,99160.55
2023-04-15T03:45:31.764Z,99153.46
2023-04-15T03:48:11.466Z,99155.11
2023-04-15T03:50:44.015Z,99160.73
2023-04-15T03:53:15.181Z,99164.50
2023-04-15T03:55:43.697Z,99165.35
2023-04-15T03:58:13.121Z,99162.77
2023-04-15T04:00:41.629Z,99165.14
2023-04-15T04:03:10.029Z,99163.57
2023-04-15T04:05:39.148Z,99161.08
2023-04-15T04:08:07.689Z,99159.84
2023-04-15T04:10:36.038Z,99160.05
2023-04-15T04:13:04.193Z,99158.20
2023-04-15T04:15:32.526Z,99159.48
2023-04-15T04:18:00.878Z,99158.73
2023-04-15T04:20:29.076Z,99157.34
2023-04-15T04:22:57.117Z,99155.85
2023-04-15T04:25:25.861Z,99154.29
2023-04-15T04:27:53.946Z,99154.35
2023-04-15T04:30:22.305Z,99153.63
2023-04-15T04:32:53.635Z,99156.31
2023-04-15T04:35:22.001Z,99154.45
2023-04-15T04:37:52.168Z,99152.78
2023-04-15T04:40:20.827Z,99147.73
2023-04-15T04:42:49.076Z,99145.00
2023-04-15T04:45:17.342Z,99146.98
2023-04-15T04:47:45.607Z,99155.73
2023-04-15T04:50:17.128Z,99158.05
2023-04-15T04:52:45.174Z,99158.61
2023-04-15T04:55:13.298Z,99163.58
2023-04-15T04:57:41.420Z,99164.09
2023-04-15T05:00:09.736Z,99168.02
2023-04-15T05:02:37.869Z,99171.42
2023-04-15T05:05:06.697Z,99172.70
2023-04-15T05:07:34.648Z,99171.87
2023-04-15T05:10:02.728Z,99174.44
2023-04-15T05:12:30.837Z,99174.10
2023-04-15T05:14:58.950Z,99175.09
2023-04-15T05:17:27.449Z,99180.64
2023-04-15T05:19:55.975Z,99184.34
2023-04-15T05:22:24.057Z,99187.13
2023-04-15T05:24:52.045Z,99184.98
2023-04-15T05:27:20.120Z,99182.26
2023-04-15T05:29:48.444Z,99183.57
2023-04-15T05:32:17.175Z,99182.49
2023-04-15T05:34:45.550Z,99181.62
2023-04-15T05:37:13.594Z,99183.54
2023-04-15T05:39:42.425Z,99186.66
2023-04-15T05:42:10.802Z,99189.69
2023-04-15T05:44:38.862Z,99194.07
2023-04-15T05:47:08.078Z,99199.93
2023-04-15T05:49:36.544Z,99200.05
2023-04-15T05:52:04.681Z,99206.20
2023-04-15T05:54:32.972Z,99209.95
2023-04-15T05:57:01.910Z,99209.26
2023-04-15T05:59:30.126Z,99210.33
2023-04-15T06:01:58.310Z,99212.21
2023-04-15T06:04:26.507Z,99215.74
2023-04-15T06:06:54.874Z,99220.73
2023-04-15T06:09:23.045Z,99223.61
2023-04-15T06:11:52.210Z,99227.70
2023-04-15T06:14:20.416Z,99235.23
2023-04-15T06:16:48.701Z,99239.70
2023-04-15T06:19:16.807Z,99242.76
2023-04-15T06:21:45.645Z,99241.92
2023-04-15T06:24:13.696Z,99242.08
2023-04-15T06:26:41.767Z,99246.23
2023-04-15T06:29:10.481Z,99242.88
2023-04-15T06:31:38.610Z,99247.19
2023-04-15T06:34:06.822Z,99246.04
2023-04-15T06:36:37.756Z,99252.39
2023-04-15T06:39:05.845Z,99247.39
2023-04-15T06:41:34.376Z,99242.61
2023-04-15T06:44:02.733Z,99244.09
2023-04-15T06:46:30.849Z,99246.19
2023-04-15T06:48:59.092Z,99249.23
2023-04-15T06:51:27.832Z,99251.02
2023-04-15T06:53:57.036Z,99252.70
2023-04-15T06:56:25.094Z,99251.00
2023-04-15T06:58:53.102Z,99255.20
2023-04-15T07:01:21.525Z,99259.21
2023-04-15T07:03:52.585Z,99259.88
2023-04-15T07:06:21.961Z,99260.13
2023-04-15T07:08:50.461Z,99264.36
2023-04-15T07:11:18.500Z,99263.27
2023-04-15T07:13:46.753Z,99267.44
2023-04-15T07:16:14.934Z,99266.72
2023-04-15T07:18:44.715Z,99266.09
2023-04-15T07:21:15.208Z,99263.19
2023-04-15T07:23:43.248Z,99265.06
2023-04-15T07:26:11.412Z,99268.91
2023-04-15T07:28:56.646Z,99278.70
2023-04-15T07:31:25.172Z,99279.76
2023-04-15T07:33:56.139Z,99280.05
2023-04-15T07:36:24.695Z,99278.91
2023-04-15T07:38:52.987Z,99282.96
2023-04-15T07:41:34.491Z,99283.41
2023-04-15T07:44:09.357Z,99284.01
2023-04-15T07:46:40.231Z,99285.43
2023-04-15T07:49:11.150Z,99284.01
2023-04-15T07:51:41.803Z,99285.67
2023-04-15T07:54:10.251Z,99290.64
2023-04-15T07:56:40.243Z,99285.20
2023-04-15T07:59:12.026Z,99283.79
2023-04-15T08:01:40.530Z,99282.11
2023-04-15T08:04:09.383Z,99283.66
2023-04-15T08:06:40.160Z,99280.25
2023-04-15T08:09:18.562Z,99282.02
2023-04-15T08:11:49.602Z,99281.38
2023-04-15T08:14:18.211Z,99279.88
2023-04-15T08:16:49.742Z,99281.61
2023-04-15T08:19:18.172Z,99280.36
2023-04-15T08:21:46.864Z,99282.27
2023-04-15T08:24:15.789Z,99279.30
2023-04-15T08:26:44.325Z,99276.50
2023-04-15T08:29:17.060Z,99276.44
2023-04-15T08:31:50.505Z,99281.82
2023-04-15T08:34:21.382Z,99283.10
2023-04-15T08:36:53.876Z,99285.35
2023-04-15T08:39:24.477Z,99282.48
2023-04-15T08:42:07.386Z,99286.48
2023-04-15T08:44:49.479Z,99287.14
2023-04-15T08:47:22.941Z,99286.57
2023-04-15T08:49:54.369Z,99280.40
2023-04-15T08:52:26.870Z,99281.98
2023-04-15T08:55:05.503Z,99282.42
2023-04-15T08:57:37.142Z,99282.36
2023-04-15T09:00:06.949Z,99278.48
2023-04-15T09:02:36.190Z,99277.52
2023-04-15T09:05:11.742Z,99280.77
2023-04-15T09:07:40.110Z,99278.08
2023-04-15T09:10:11.918Z,99280.14
2023-04-15T09:12:42.709Z,99280.81
2023-04-15T09:15:24.700Z,99282.77
2023-04-15T09:17:56.311Z,99282.73
2023-04-15T09:20:24.896Z,99286.94
2023-04-15T09:22:55.804Z,99287.73
2023-04-15T09:25:36.024Z,99289.63
2023-04-15T09:28:04.808Z,99286.89
2023-04-15T09:30:33.556Z,99287.14
2023-04-15T09:33:08.785Z,99285.00
2023-04-15T09:35:37.361Z,99283.95
2023-04-15T09:38:10.196Z,99284.83
2023-04-15T09:40:41.359Z,99285.45
2023-04-15T09:43:13.231Z,99282.74
2023-04-15T09:45:48.909Z,99281.52
2023-04-15T09:48:21.335Z,99276.13
2023-04-15T09:50:50.591Z,99278.08
2023-04-15T09:53:20.858Z,99272.09
2023-04-15T09:55:52.145Z,99277.23
2023-04-15T09:58:25.745Z,99277.66
2023-04-15T10:01:02.051Z,99283.81
2023-04-15T10:03:40.511Z,99289.31
2023-04-15T10:06:10.447Z,99287.77
2023-04-15T10:08:39.283Z,99290.48
2023-04-15T10:11:08.171Z,99292.77
2023-04-15T10:13:38.318Z,99293.99
2023-04-15T10:16:07.229Z,99288.98
2023-04-15T10:18:45.910Z,99289.14
2023-04-15T10:21:22.077Z,99298.50
2023-04-15T10:24:02.034Z,99301.20
2023-04-15T10:26:43.861Z,99298.13
2023-04-15T10:29:18.947Z,99291.64
2023-04-15T10:31:57.035Z,99292.90
2023-04-15T10:34:29.721Z,99291.35
2023-04-15T10:37:36.311Z,99293.36
2023-04-15T10:40:30.507Z,99295.39
2023-04-15T10:43:07.353Z,99294.39
2023-04-15T10:45:50.071Z,99294.96
2023-04-15T10:48:33.828Z,99302.30
2023-04-15T10:51:05.994Z,99302.89
2023-04-15T10:54:00.167Z,99301.31
2023-04-15T10:56:36.874Z,99303.27
2023-04-15T10:59:05.809Z,99305.08
2023-04-15T11:01:56.529Z,99302.77
2023-04-15T11:07:52.360Z,99299.98
2023-04-15T11:10:28.108Z,99296.90
2023-04-15T11:13:03.830Z,99300.55
2023-04-15T11:15:40.464Z,99307.33
2023-04-15T11:18:10.382Z,99309.40
2023-04-15T11:21:04.214Z,99313.26
2023-04-15T11:23:54.594Z,99315.57
2023-04-15T11:26:35.996Z,99317.20
2023-04-15T11:29:05.592Z,99321.88
2023-04-15T11:31:34.044Z,99316.92
2023-04-15T11:34:04.807Z,99315.39
2023-04-15T11:36:33.224Z,99316.25
2023-04-15T11:39:01.667Z,99316.27
2023-04-15T11:41:30.480Z,99314.72
2023-04-15T11:43:58.988Z,99317.15
2023-04-15T11:46:32.083Z,99315.67
2023-04-15T11:49:02.840Z,99313.68
2023-04-15T11:51:35.238Z,99312.10
2023-04-15T11:54:04.278Z,99313.78
2023-04-15T11:57:04.788Z,99316.55
2023-04-15T11:59:45.839Z,99315.09
2023-04-15T12:02:14.840Z,99319.44
2023-04-15T12:04:43.678Z,99315.80
2023-04-15T12:07:12.845Z,99319.55
2023-04-15T12:09:41.340Z,99318.19
2023-04-15T12:12:14.599Z,99318.55
2023-04-15T12:14:43.595Z,99313.45
2023-04-15T12:17:15.518Z,99314.73
2023-04-15T12:19:51.313Z,99314.56
2023-04-15T12:22:22.350Z,99315.15
2023-04-15T12:24:57.909Z,99316.63
2023-04-15T12:27:29.718Z,99316.76
2023-04-15T12:30:11.944Z,99316.19
2023-04-15T12:32:42.107Z,99317.61
2023-04-15T12:35:11.576Z,99321.73
2023-04-15T12:37:39.774Z,99325.58
2023-04-15T12:40:09.305Z,99327.29
2023-04-15T12:42:38.207Z,99324.59
2023-04-15T12:45:07.161Z,99327.98
2023-04-15T12:47:38.810Z,99325.62
2023-04-15T12:50:07.714Z,99321.33
2023-04-15T12:52:36.029Z,99322.71
2023-04-15T12:55:04.463Z,99326.58
2023-04-15T12:57:37.815Z,99326.05
2023-04-15T13:00:20.345Z,99324.00
2023-04-15T13:02:57.976Z,99331.74
2023-04-15T13:05:26.772Z,99328.90
2023-04-15T13:07:54.972Z,99325.52
2023-04-15T13:11:10.522Z,99320.41
2023-04-15T13:13:44.086Z,99325.79
2023-04-15T13:16:12.228Z,99327.84
2023-04-15T13:18:40.886Z,99327.52
2023-04-15T13:21:14.691Z,99328.77
2023-04-15T13:23:43.050Z,99328.20
2023-04-15T13:26:11.550Z,99327.63
2023-04-15T13:28:46.028Z,99327.73
2023-04-15T13:31:14.604Z,99327.61
2023-04-15T13:33:52.433Z,99326.10
2023-04-15T13:36:28.801Z,99322.83
2023-04-15T13:39:00.828Z,99326.80
2023-04-15T13:42:06.635Z,99332.65
2023-04-15T13:44:38.762Z,99329.79
2023-04-15T13:47:14.824Z,99328.80
2023-04-15T13:49:54.552Z,99332.12
2023-04-15T13:52:23.653Z,99332.60
2023-04-15T13:55:19.477Z,99333.20
2023-04-15T13:57:55.096Z,99337.41
2023-04-15T14:00:48.307Z,99335.66
2023-04-15T14:03:46.161Z,99343.11
2023-04-15T14:06:28.956Z,99338.13
2023-04-15T14:09:06.241Z,99338.13
2023-04-15T14:11:37.099Z,99347.91
2023-04-15T14:14:08.433Z,99348.30
2023-04-15T14:16:42.350Z,99346.13
2023-04-15T14:19:13.061Z,99346.67
2023-04-15T14:21:42.095Z,99346.48
2023-04-15T14:24:24.864Z,99348.34
2023-04-15T14:26:57.661Z,99345.20
2023-04-15T14:29:26.270Z,99347.05
2023-04-15T14:32:08.562Z,99345.50
2023-04-15T14:34:42.711Z,99343.97
2023-04-15T14:37:13.897Z,99341.64
2023-04-15T14:39:47.426Z,99342.60
2023-04-15T14:42:29.631Z,99347.00
2023-04-15T14:45:23.572Z,99348.84
2023-04-15T14:48:23.547Z,99351.80
2023-04-15T14:50:52.491Z,99353.38
2023-04-15T14:56:16.096Z,99351.54
2023-04-15T14:58:44.688Z,99354.29
2023-04-15T15:01:16.144Z,99354.85
2023-04-15T15:06:32.215Z,99360.70
2023-04-15T15:09:10.010Z,99361.50
2023-04-15T15:11:39.844Z,99365.33
2023-04-15T15:14:08.337Z,99369.31
2023-04-15T15:16:37.730Z,99370.91
2023-04-15T15:19:06.179Z,99376.41
2023-04-15T15:21:35.103Z,99377.48
2023-04-15T15:24:03.673Z,99375.70
2023-04-15T15:26:33.839Z,99378.92
2023-04-15T15:29:05.699Z,99378.48
2023-04-15T15:31:39.550Z,99383.41
2023-04-15T15:34:11.152Z,99384.37
2023-04-15T15:36:54.297Z,99386.27
2023-04-15T15:39:23.994Z,99390.21
2023-04-15T15:41:56.082Z,99391.35
2023-04-15T15:44:24.540Z,99391.41
2023-04-15T15:46:57.803Z,99395.39
2023-04-15T15:49:28.409Z,99401.42
2023-04-15T15:51:57.189Z,99404.46
2023-04-15T15:54:32.884Z,99403.13
2023-04-15T15:57:02.323Z,99403.27
2023-04-15T15:59:33.415Z,99403.44
2023-04-15T16:02:04.800Z,99401.83
2023-04-15T16:04:36.652Z,99398.52
2023-04-15T16:07:12.859Z,99397.59
2023-04-15T16:10:01.784Z,99398.77
2023-04-15T16:12:35.061Z,99399.30
2023-04-15T16:15:04.445Z,99398.64
2023-04-15T16:17:36.479Z,99399.55
2023-04-15T16:20:12.199Z,99404.18
2023-04-15T16:22:48.400Z,99405.39
2023-04-15T16:25:23.542Z,99402.59
2023-04-15T16:28:03.453Z,99401.30
2023-04-15T16:30:41.683Z,99405.73
2023-04-15T16:33:10.015Z,99412.31
2023-04-15T16:35:38.196Z,99415.79
2023-04-15T16:38:09.424Z,99413.70
2023-04-15T16:40:40.728Z,99418.60
2023-04-15T16:43:11.526Z,99422.23
2023-04-15T16:45:39.742Z,99423.85
2023-04-15T16:48:08.031Z,99427.25
2023-04-15T16:50:39.270Z,99427.93
2023-04-15T16:53:08.151Z,99431.15
2023-04-15T16:55:36.524Z,99435.96
2023-04-15T16:58:05.998Z,99440.64
2023-04-15T17:00:37.076Z,99445.31
2023-04-15T17:03:06.318Z,99454.33
2023-04-15T17:05:34.866Z,99460.82
2023-04-15T17:08:03.280Z,99463.27
2023-04-15T17:10:31.720Z,99468.24
2023-04-15T17:12:59.917Z,99471.55
2023-04-15T17:15:28.143Z,99472.48
2023-04-15T17:17:56.461Z,99474.62
2023-04-15T17:20:24.945Z,99477.70
2023-04-15T17:22:53.366Z,99481.17
2023-04-15T17:25:24.098Z,99487.04
2023-04-15T17:27:52.505Z,99492.25
2023-04-15T17:30:21.904Z,99495.63
2023-04-15T17:32:51.814Z,99501.77
2023-04-15T17:35:26.404Z,99502.05
2023-04-15T17:37:54.671Z,99504.77
2023-04-15T17:40:22.980Z,99509.39
2023-04-15T17:42:51.191Z,99510.21
2023-04-15T17:45:20.826Z,99516.15
2023-04-15T17:47:49.121Z,99519.63
2023-04-15T17:50:17.688Z,99523.42
2023-04-15T17:52:48.444Z,99529.77
2023-04-15T17:55:16.840Z,99533.18
2023-04-15T17:57:46.442Z,99538.41
2023-04-15T18:00:14.878Z,99543.02
2023-04-15T18:02:43.355Z,99548.21
2023-04-15T18:05:12.114Z,99552.25
2023-04-15T18:07:41.203Z,99555.50
2023-04-15T18:10:09.599Z,99559.30
2023-04-15T18:12:38.162Z,99564.84
2023-04-15T18:15:06.870Z,99568.01
2023-04-15T18:17:35.847Z,99571.31
2023-04-15T18:20:04.238Z,99577.64
2023-04-15T18:22:32.372Z,99579.45
2023-04-15T18:25:04.288Z,99579.66
2023-04-15T18:27:33.861Z,99583.17
2023-04-15T18:30:01.962Z,99587.89
2023-04-15T18:32:33.438Z,99587.40
2023-04-15T18:35:02.075Z,99590.91
2023-04-15T18:37:30.405Z,99596.26
2023-04-15T18:39:59.086Z,99601.92
2023-04-15T18:42:27.557Z,99605.11
2023-04-15T18:44:56.204Z,99610.71
2023-04-15T18:47:36.763Z,99613.52
2023-04-15T18:50:05.395Z,99611.89
2023-04-15T18:52:34.306Z,99615.79
2023-04-15T18:55:03.466Z,99620.09
2023-04-15T18:57:34.816Z,99623.13
2023-04-15T19:00:04.818Z,99628.30
2023-04-15T19:02:33.041Z,99625.95
2023-04-15T19:05:04.390Z,99628.18
2023-04-15T19:07:32.936Z,99629.31
2023-04-15T19:10:01.346Z,99629.54
2023-04-15T19:12:29.533Z,99633.38
2023-04-15T19:14:57.925Z,99637.48
2023-04-15T19:17:26.703Z,99639.50
2023-04-15T19:19:55.038Z,99640.34
2023-04-15T19:22:23.403Z,99643.82
2023-04-15T19:24:52.193Z,99644.81
2023-04-15T19:27:20.474Z,99641.20
2023-04-15T19:29:48.519Z,99643.02
2023-04-15T19:32:16.768Z,99642.85
2023-04-15T19:34:44.885Z,99643.43
2023-04-15T19:37:15.029Z,99646.07
2023-04-15T19:39:44.274Z,99649.27
2023-04-15T19:42:12.984Z,99647.84
2023-04-15T19:44:42.947Z,99649.80
2023-04-15T19:47:11.848Z,99653.48
2023-04-15T19:49:40.814Z,99650.06
2023-04-15T19:52:08.819Z,99649.89
2023-04-15T19:54:37.118Z,99651.98
2023-04-15T19:57:05.441Z,99653.63
2023-04-15T19:59:33.633Z,99653.77
2023-04-15T20:02:01.786Z,99653.21
2023-04-15T20:04:30.095Z,99654.41
2023-04-15T20:06:58.159Z,99651.65
2023-04-15T20:09:26.270Z,99651.11
2023-04-15T20:12:48.132Z,99650.46
2023-04-15T20:14:42.318Z,99651.64
2023-04-15T20:17:10.433Z,99647.52
2023-04-15T20:19:48.197Z,99646.45
2023-04-15T20:22:16.572Z,99651.80
2023-04-15T20:24:44.696Z,99655.33
2023-04-15T20:27:12.718Z,99653.80
2023-04-15T20:29:40.872Z,99656.07
2023-04-15T20:32:11.660Z,99663.30
2023-04-15T20:34:42.551Z,99661.94
2023-04-15T20:37:12.441Z,99661.41
2023-04-15T20:39:42.135Z,99658.13
2023-04-15T20:42:10.644Z,99659.03
2023-04-15T20:44:38.849Z,99664.83
2023-04-15T20:47:07.536Z,99668.80
2023-04-15T20:49:39.929Z,99669.69
2023-04-15T20:52:09.087Z,99672.38
2023-04-15T20:54:37.146Z,99673.84
2023-04-15T20:57:05.184Z,99680.58
2023-04-15T20:59:34.876Z,99678.34
2023-04-15T21:02:03.102Z,99681.95
2023-04-15T21:04:31.323Z,99681.94
2023-04-15T21:06:59.388Z,99683.98
2023-04-15T21:09:30.416Z,99686.66
2023-04-15T21:12:01.557Z,99688.26
2023-04-15T21:14:30.214Z,99690.81
2023-04-15T21:16:58.372Z,99692.38
2023-04-15T21:19:26.620Z,99691.64
2023-04-15T21:21:54.783Z,99693.41
2023-04-15T21:24:22.689Z,99694.17
2023-04-15T21:26:50.680Z,99695.55
2023-04-15T21:29:18.804Z,99701.50
2023-04-15T21:31:46.793Z,99701.36
2023-04-15T21:34:14.898Z,99701.40
2023-04-15T21:36:43.063Z,99701.68
2023-04-15T21:39:11.363Z,99698.10
2023-04-15T21:41:39.325Z,99697.36
2023-04-15T21:44:07.353Z,99698.52
2023-04-15T21:46:36.246Z,99698.57
2023-04-15T21:49:06.397Z,99703.14
2023-04-15T21:51:34.818Z,99700.67
2023-04-15T21:54:03.113Z,99701.08
2023-04-15T21:56:32.567Z,99704.32
2023-04-15T21:59:00.708Z,99701.75
2023-04-15T22:01:28.928Z,99701.95
2023-04-15T22:03:57.145Z,99701.92
2023-04-15T22:06:25.470Z,99702.99
2023-04-15T22:08:57.381Z,99705.07
2023-04-15T22:11:27.635Z,99703.84
2023-04-15T22:13:57.615Z,99706.23
2023-04-15T22:16:26.747Z,99707.14
2023-04-15T22:18:56.123Z,99708.17
2023-04-15T22:21:24.508Z,99708.04
2023-04-15T22:23:53.237Z,99705.02
2023-04-15T22:26:51.106Z,99709.21
2023-04-15T22:29:19.264Z,99709.96
2023-04-15T22:31:47.500Z,99715.38
2023-04-15T22:34:20.753Z,99716.04
2023-04-15T22:36:50.819Z,99715.13
2023-04-15T22:39:20.473Z,99714.51
2023-04-15T22:41:49.741Z,99717.06
2023-04-15T22:44:18.145Z,99718.75
2023-04-15T22:46:46.365Z,99720.97
2023-04-15T22:49:14.395Z,99721.40
2023-04-15T22:51:42.495Z,99718.02
2023-04-15T22:54:10.918Z,99720.55
2023-04-15T22:56:40.215Z,99726.27
2023-04-15T22:59:14.545Z,99733.80
2023-04-15T23:01:42.593Z,99730.20
2023-04-15T23:04:26.233Z,99732.19
2023-04-15T23:06:57.824Z,99733.64
2023-04-15T23:09:26.482Z,99729.79
2023-04-15T23:11:56.348Z,99728.48
2023-04-15T23:14:26.255Z,99729.45
2023-04-15T23:16:54.836Z,99732.17
2023-04-15T23:19:23.336Z,99734.73
2023-04-15T23:21:53.935Z,99736.83
2023-04-15T23:24:24.573Z,99736.86
2023-04-15T23:26:57.331Z,99733.41
2023-04-15T23:29:25.721Z,99726.98
2023-04-15T23:31:59.827Z,99718.11
2023-04-15T23:34:39.955Z,99720.88
2023-04-15T23:37:07.995Z,99724.75
2023-04-15T23:39:36.358Z,99732.16
2023-04-15T23:42:04.500Z,99735.95
2023-04-15T23:44:32.599Z,99734.20
2023-04-15T23:47:00.676Z,99733.00
2023-04-15T23:49:28.862Z,99734.55
2023-04-15T23:51:57.606Z,99730.02
2023-04-15T23:54:25.659Z,99731.31
2023-04-15T23:56:53.854Z,99729.20
2023-04-15T23:59:21.888Z,99729.67
